createdAt,value
2018-05-12T00:00:08.005Z,24.07
2018-05-12T00:02:35.548Z,24.50
2018-05-12T00:05:03.077Z,24.63
2018-05-12T00:07:30.718Z,22.40
2018-05-12T00:09:58.245Z,23.38
2018-05-12T00:12:25.760Z,23.20
2018-05-12T00:14:53.634Z,24.53
2018-05-12T00:17:21.084Z,23.13
2018-05-12T00:19:48.604Z,22.70
2018-05-12T00:22:16.351Z,22.85
2018-05-12T00:24:43.880Z,23.02
2018-05-12T00:27:11.408Z,24.05
2018-05-12T00:29:39.108Z,24.92
2018-05-12T00:32:06.633Z,27.10
2018-05-12T00:34:34.331Z,26.62
2018-05-12T00:37:02.340Z,26.17
2018-05-12T00:39:30.394Z,24.80
2018-05-12T00:41:57.912Z,22.80
2018-05-12T00:44:25.482Z,24.30
2018-05-12T00:46:53.012Z,22.87
2018-05-12T00:49:20.545Z,24.02
2018-05-12T00:51:48.312Z,23.40
2018-05-12T00:54:15.844Z,21.95
2018-05-12T00:56:43.410Z,24.33
2018-05-12T00:59:11.124Z,23.30
2018-05-12T01:01:38.659Z,25.83
2018-05-12T01:04:06.181Z,23.85
2018-05-12T01:06:33.748Z,27.02
2018-05-12T01:09:01.272Z,26.02
2018-05-12T01:11:28.805Z,26.70
2018-05-12T01:13:56.777Z,25.33
2018-05-12T01:16:24.308Z,27.02
2018-05-12T01:18:51.852Z,26.77
2018-05-12T01:21:19.428Z,28.30
2018-05-12T01:23:47.115Z,30.70
2018-05-12T01:26:14.640Z,29.40
2018-05-12T01:28:42.943Z,28.65
2018-05-12T01:31:10.784Z,28.17
2018-05-12T01:33:38.312Z,27.42
2018-05-12T01:36:06.276Z,28.87
2018-05-12T01:38:33.801Z,29.23
2018-05-12T01:41:01.328Z,30.48
2018-05-12T01:43:29.160Z,27.85
2018-05-12T01:45:56.684Z,28.55
2018-05-12T01:48:24.217Z,30.45
2018-05-12T01:50:51.861Z,29.05
2018-05-12T01:53:19.384Z,27.00
2018-05-12T01:55:46.942Z,28.30
2018-05-12T01:58:14.500Z,28.95
2018-05-12T02:00:42.020Z,29.15
2018-05-12T02:03:09.559Z,28.30
2018-05-12T02:05:37.528Z,30.10
2018-05-12T02:08:05.056Z,28.50
2018-05-12T02:10:32.584Z,29.40
2018-05-12T02:13:00.280Z,28.58
2018-05-12T02:15:27.800Z,30.37
2018-05-12T02:17:55.329Z,31.50
2018-05-12T02:20:22.892Z,32.03
2018-05-12T02:22:50.416Z,30.85
2018-05-12T02:25:17.945Z,27.45
2018-05-12T02:27:45.641Z,30.73
2018-05-12T02:30:13.165Z,33.45
2018-05-12T02:32:40.689Z,31.77
2018-05-12T02:35:08.731Z,33.42
2018-05-12T02:37:36.276Z,31.00
2018-05-12T02:40:03.806Z,29.48
2018-05-12T02:42:31.517Z,32.20
2018-05-12T02:44:59.041Z,30.20
2018-05-12T02:47:26.567Z,29.70
2018-05-12T02:49:54.130Z,29.42
2018-05-12T02:52:21.717Z,31.45
2018-05-12T02:54:49.250Z,32.60
2018-05-12T02:57:16.814Z,31.27
2018-05-12T02:59:44.343Z,32.10
2018-05-12T03:02:11.905Z,31.17
2018-05-12T03:04:39.852Z,33.33
2018-05-12T03:07:07.381Z,31.55
2018-05-12T03:09:34.907Z,31.37
2018-05-12T03:12:02.536Z,32.33
2018-05-12T03:14:30.056Z,28.23
2018-05-12T03:16:57.584Z,29.58
2018-05-12T03:19:25.308Z,32.25
2018-05-12T03:21:52.907Z,30.67
2018-05-12T03:24:20.520Z,29.75
2018-05-12T03:26:48.296Z,28.45
2018-05-12T03:29:15.815Z,30.17
2018-05-12T03:31:43.335Z,28.83
2018-05-12T03:34:10.880Z,29.08
2018-05-12T03:36:38.401Z,27.08
2018-05-12T03:39:05.920Z,28.52
2018-05-12T03:41:33.758Z,27.40
2018-05-12T03:44:01.285Z,30.00
2018-05-12T03:46:29.840Z,26.58
2018-05-12T03:48:58.257Z,30.58
2018-05-12T03:51:26.929Z,32.58
2018-05-12T03:53:54.752Z,32.42
2018-05-12T03:56:22.483Z,34.55
2018-05-12T03:58:49.996Z,32.30
2018-05-12T04:01:17.508Z,32.92
2018-05-12T04:03:45.524Z,35.20
2018-05-12T04:06:24.860Z,33.88
2018-05-12T04:09:04.268Z,34.00
2018-05-12T04:11:43.662Z,38.83
2018-05-12T04:14:11.451Z,35.63
2018-05-12T04:16:38.976Z,33.83
2018-05-12T04:19:06.500Z,37.40
2018-05-12T04:21:34.440Z,35.20
2018-05-12T04:24:01.970Z,35.03
2018-05-12T04:26:29.492Z,33.85
2018-05-12T04:28:57.217Z,33.60
2018-05-12T04:31:24.740Z,36.65
2018-05-12T04:33:52.260Z,33.38
2018-05-12T04:36:19.992Z,30.92
2018-05-12T04:38:47.529Z,35.20
2018-05-12T04:41:15.059Z,33.70
2018-05-12T04:43:43.080Z,33.00
2018-05-12T04:46:10.625Z,30.50
2018-05-12T04:48:38.148Z,33.42
2018-05-12T04:51:05.864Z,34.80
2018-05-12T04:53:33.389Z,33.55
2018-05-12T04:56:00.951Z,32.30
2018-05-12T04:58:28.748Z,33.15
2018-05-12T05:00:56.368Z,34.55
2018-05-12T05:03:23.896Z,34.92
2018-05-12T05:05:52.217Z,33.40
2018-05-12T05:08:19.834Z,35.55
2018-05-12T05:10:47.290Z,35.00
2018-05-12T05:13:14.865Z,32.70
2018-05-12T05:15:42.392Z,36.78
2018-05-12T05:18:09.923Z,35.25
2018-05-12T05:20:37.484Z,33.85
2018-05-12T05:23:05.004Z,32.42
2018-05-12T05:25:32.525Z,33.57
2018-05-12T05:28:00.060Z,33.70
2018-05-12T05:30:27.576Z,31.30
2018-05-12T05:32:55.523Z,33.43
2018-05-12T05:35:23.159Z,35.13
2018-05-12T05:37:50.676Z,36.30
2018-05-12T05:40:18.390Z,34.97
2018-05-12T05:42:46.140Z,37.13
2018-05-12T05:45:13.664Z,36.00
2018-05-12T05:47:41.200Z,36.30
2018-05-12T05:50:09.131Z,35.47
2018-05-12T05:52:36.676Z,37.60
2018-05-12T05:55:04.193Z,34.83
2018-05-12T05:57:31.916Z,38.23
2018-05-12T05:59:59.433Z,32.63
2018-05-12T06:02:26.948Z,32.40
2018-05-12T06:04:54.792Z,36.90
2018-05-12T06:07:22.308Z,34.43
2018-05-12T06:09:49.819Z,35.57
2018-05-12T06:12:17.396Z,35.13
2018-05-12T06:14:44.912Z,33.20
2018-05-12T06:17:12.428Z,35.30
2018-05-12T06:19:40.352Z,36.63
2018-05-12T06:22:07.881Z,33.70
2018-05-12T06:24:35.401Z,35.07
2018-05-12T06:27:02.977Z,35.80
2018-05-12T06:29:30.617Z,35.80
2018-05-12T06:31:58.136Z,33.97
2018-05-12T06:34:25.919Z,36.73
2018-05-12T06:36:53.437Z,36.10
2018-05-12T06:39:20.956Z,33.77
2018-05-12T06:41:48.533Z,34.63
2018-05-12T06:44:16.051Z,35.20
2018-05-12T06:46:43.626Z,35.17
2018-05-12T06:49:11.150Z,36.87
2018-05-12T06:51:38.674Z,31.83
2018-05-12T06:54:07.221Z,33.77
2018-05-12T06:56:37.456Z,33.50
2018-05-12T06:59:05.700Z,33.90
2018-05-12T07:01:34.177Z,33.13
2018-05-12T07:04:02.796Z,35.87
2018-05-12T07:06:31.648Z,34.70
2018-05-12T07:08:59.451Z,33.87
2018-05-12T07:11:27.096Z,36.10
2018-05-12T07:13:55.419Z,34.47
2018-05-12T07:16:25.028Z,35.77
2018-05-12T07:18:53.276Z,35.30
2018-05-12T07:21:21.631Z,35.20
2018-05-12T07:23:49.673Z,33.90
2018-05-12T07:26:18.199Z,34.20
2018-05-12T07:28:46.130Z,34.80
2018-05-12T07:31:13.692Z,34.80
2018-05-12T07:33:41.365Z,35.03
2018-05-12T07:36:09.978Z,35.13
2018-05-12T07:38:37.621Z,35.33
2018-05-12T07:41:05.761Z,32.47
2018-05-12T07:43:34.498Z,33.80
2018-05-12T07:46:03.696Z,31.60
2018-05-12T07:48:32.676Z,31.87
2018-05-12T07:51:02.227Z,35.60
2018-05-12T07:53:29.799Z,36.13
2018-05-12T07:55:57.518Z,34.63
2018-05-12T07:58:27.637Z,35.20
2018-05-12T08:00:56.125Z,34.33
2018-05-12T08:03:25.569Z,33.70
2018-05-12T08:05:54.309Z,32.17
2018-05-12T08:08:22.280Z,33.60
2018-05-12T08:10:50.285Z,30.90
2018-05-12T08:13:18.858Z,32.87
2018-05-12T08:15:46.805Z,33.00
2018-05-12T08:18:16.893Z,32.67
2018-05-12T08:20:44.888Z,34.80
2018-05-12T08:23:12.449Z,31.90
2018-05-12T08:25:40.189Z,35.07
2018-05-12T08:28:08.677Z,33.93
2018-05-12T08:30:36.792Z,33.37
2018-05-12T08:33:04.944Z,31.50
2018-05-12T08:35:33.467Z,32.93
2018-05-12T08:38:01.910Z,34.73
2018-05-12T08:40:30.503Z,34.97
2018-05-12T08:42:58.050Z,35.50
2018-05-12T08:45:26.716Z,32.63
2018-05-12T08:47:56.239Z,30.07
2018-05-12T08:50:24.344Z,32.40
2018-05-12T08:52:52.410Z,33.27
2018-05-12T08:55:21.945Z,33.13
2018-05-12T08:57:50.770Z,30.60
2018-05-12T09:00:18.536Z,32.07
2018-05-12T09:02:47.014Z,29.50
2018-05-12T09:05:14.987Z,28.47
2018-05-12T09:07:43.837Z,28.27
2018-05-12T09:10:12.562Z,30.67
2018-05-12T09:12:40.428Z,28.20
2018-05-12T09:15:08.501Z,28.50
2018-05-12T09:17:36.442Z,26.50
2018-05-12T09:20:04.665Z,26.10
2018-05-12T09:22:32.588Z,26.10
2018-05-12T09:25:00.775Z,25.40
2018-05-12T09:27:28.549Z,23.40
2018-05-12T09:29:56.132Z,25.33
2018-05-12T09:32:24.236Z,24.10
2018-05-12T09:34:52.357Z,25.80
2018-05-12T09:37:19.912Z,19.17
2018-05-12T09:39:47.797Z,18.17
2018-05-12T09:42:15.394Z,18.83
2018-05-12T09:44:42.862Z,19.90
2018-05-12T09:47:11.073Z,19.23
2018-05-12T09:49:38.592Z,19.50
2018-05-12T09:52:06.110Z,17.67
2018-05-12T09:54:33.916Z,15.40
2018-05-12T09:57:01.429Z,13.80
2018-05-12T09:59:29.101Z,13.40
2018-05-12T10:01:56.758Z,15.20
2018-05-12T10:04:24.398Z,13.50
2018-05-12T10:06:51.964Z,15.57
2018-05-12T10:09:19.784Z,15.30
2018-05-12T10:11:47.321Z,13.57
2018-05-12T10:14:14.839Z,12.17
2018-05-12T10:16:42.419Z,11.63
2018-05-12T10:19:09.980Z,11.80
2018-05-12T10:21:37.501Z,13.07
2018-05-12T10:24:05.994Z,12.50
2018-05-12T10:26:33.884Z,11.53
2018-05-12T10:29:01.820Z,13.50
2018-05-12T10:31:31.491Z,12.73
2018-05-12T10:33:59.101Z,12.37
2018-05-12T10:36:26.672Z,12.00
2018-05-12T10:38:54.241Z,11.53
2018-05-12T10:41:21.768Z,11.30
2018-05-12T10:43:49.305Z,12.67
2018-05-12T10:46:16.861Z,12.17
2018-05-12T10:48:44.380Z,15.97
2018-05-12T10:51:11.896Z,15.53
2018-05-12T10:53:39.452Z,13.50
2018-05-12T10:56:06.984Z,19.60
2018-05-12T10:58:34.503Z,13.67
2018-05-12T11:01:02.235Z,15.23
2018-05-12T11:03:29.749Z,7.20
2018-05-12T11:05:57.268Z,11.77
2018-05-12T11:08:25.013Z,11.13
2018-05-12T11:10:52.525Z,9.63
2018-05-12T11:13:20.050Z,8.53
2018-05-12T11:15:47.617Z,7.17
2018-05-12T11:18:15.122Z,7.13
2018-05-12T11:20:42.661Z,10.43
2018-05-12T11:23:10.369Z,9.93
2018-05-12T11:25:37.890Z,11.17
2018-05-12T11:28:05.413Z,12.00
2018-05-12T11:30:33.203Z,13.20
2018-05-12T11:33:00.733Z,11.47
2018-05-12T11:35:28.257Z,17.63
2018-05-12T11:37:55.929Z,8.40
2018-05-12T11:40:23.457Z,9.53
2018-05-12T11:42:50.984Z,22.23
2018-05-12T11:45:18.918Z,8.53
2018-05-12T11:47:46.441Z,15.80
2018-05-12T11:50:14.184Z,8.87
2018-05-12T11:52:42.659Z,8.63
2018-05-12T11:55:10.176Z,7.50
2018-05-12T11:57:37.692Z,7.63
2018-05-12T12:00:05.344Z,6.50
2018-05-12T12:02:32.910Z,7.80
2018-05-12T12:05:00.388Z,7.20
2018-05-12T12:07:28.176Z,6.67
2018-05-12T12:09:55.711Z,5.83
2018-05-12T12:12:23.236Z,6.57
2018-05-12T12:14:50.880Z,6.73
2018-05-12T12:17:18.397Z,6.93
2018-05-12T12:19:45.917Z,7.67
2018-05-12T12:22:13.844Z,8.97
2018-05-12T12:24:41.364Z,7.00
2018-05-12T12:27:08.874Z,7.27
2018-05-12T12:29:36.528Z,8.43
2018-05-12T12:32:04.044Z,6.80
2018-05-12T12:34:31.560Z,6.73
2018-05-12T12:36:59.300Z,5.87
2018-05-12T12:39:26.860Z,6.90
2018-05-12T12:41:54.373Z,7.07
2018-05-12T12:44:22.089Z,6.47
2018-05-12T12:46:49.611Z,6.93
2018-05-12T12:49:17.157Z,6.37
2018-05-12T12:51:44.802Z,7.03
2018-05-12T12:54:12.241Z,6.63
2018-05-12T12:56:39.879Z,6.37
2018-05-12T12:59:07.909Z,5.80
2018-05-12T13:01:35.534Z,6.87
2018-05-12T13:04:03.089Z,4.67
2018-05-12T13:06:30.827Z,4.40
2018-05-12T13:08:58.357Z,5.10
2018-05-12T13:11:25.891Z,4.70
2018-05-12T13:13:53.492Z,4.90
2018-05-12T13:16:21.008Z,4.70
2018-05-12T13:18:48.526Z,4.80
2018-05-12T13:21:16.185Z,4.97
2018-05-12T13:23:43.708Z,6.40
2018-05-12T13:26:11.220Z,5.10
2018-05-12T13:28:38.941Z,5.00
2018-05-12T13:31:06.457Z,4.50
2018-05-12T13:33:33.974Z,4.43
2018-05-12T13:36:01.540Z,4.43
2018-05-12T13:38:29.129Z,4.63
2018-05-12T13:40:56.661Z,4.63
2018-05-12T13:43:24.220Z,4.17
2018-05-12T13:45:51.887Z,3.93
2018-05-12T13:48:19.400Z,4.37
2018-05-12T13:50:47.068Z,4.60
2018-05-12T13:53:14.605Z,4.53
2018-05-12T13:55:42.138Z,4.60
2018-05-12T13:58:09.739Z,4.40
2018-05-12T14:00:37.253Z,4.43
2018-05-12T14:03:04.765Z,3.63
2018-05-12T14:05:32.305Z,4.33
2018-05-12T14:07:59.853Z,4.97
2018-05-12T14:10:27.365Z,4.60
2018-05-12T14:12:55.066Z,3.97
2018-05-12T14:15:22.622Z,4.47
2018-05-12T14:17:50.157Z,4.73
2018-05-12T14:20:17.921Z,4.00
2018-05-12T14:22:45.457Z,4.27
2018-05-12T14:25:12.966Z,4.10
2018-05-12T14:27:40.653Z,4.90
2018-05-12T14:30:08.465Z,5.00
2018-05-12T14:32:37.700Z,4.97
2018-05-12T14:35:05.845Z,5.50
2018-05-12T14:37:34.056Z,4.83
2018-05-12T14:40:02.814Z,5.50
2018-05-12T14:42:30.670Z,6.20
2018-05-12T14:44:58.609Z,5.20
2018-05-12T14:47:26.130Z,6.23
2018-05-12T14:49:53.676Z,5.77
2018-05-12T14:52:21.188Z,5.20
2018-05-12T14:54:48.709Z,5.30
2018-05-12T14:57:16.866Z,4.87
2018-05-12T14:59:44.396Z,4.60
2018-05-12T15:02:12.185Z,4.77
2018-05-12T15:04:39.939Z,4.37
2018-05-12T15:07:09.548Z,4.70
2018-05-12T15:09:37.076Z,4.33
2018-05-12T15:12:04.884Z,5.80
2018-05-12T15:14:32.435Z,4.27
2018-05-12T15:17:00.188Z,4.80
2018-05-12T15:19:27.846Z,4.77
2018-05-12T15:21:55.360Z,4.33
2018-05-12T15:24:22.893Z,3.77
2018-05-12T15:26:50.701Z,4.50
2018-05-12T15:29:18.235Z,4.03
2018-05-12T15:31:46.589Z,3.93
2018-05-12T15:34:14.326Z,4.27
2018-05-12T15:36:41.833Z,4.33
2018-05-12T15:39:09.572Z,4.50
2018-05-12T15:41:37.655Z,5.40
2018-05-12T15:44:05.223Z,5.03
2018-05-12T15:46:32.716Z,4.70
2018-05-12T15:49:01.857Z,4.53
2018-05-12T15:51:29.834Z,4.37
2018-05-12T15:53:57.599Z,3.90
2018-05-12T15:56:25.277Z,4.07
2018-05-12T15:58:53.592Z,4.73
2018-05-12T16:01:21.106Z,4.13
2018-05-12T16:03:48.740Z,5.10
2018-05-12T16:06:17.089Z,5.03
2018-05-12T16:08:45.858Z,5.40
2018-05-12T16:11:13.478Z,5.13
2018-05-12T16:13:41.550Z,5.43
2018-05-12T16:16:09.067Z,4.93
2018-05-12T16:18:36.734Z,4.70
2018-05-12T16:21:04.255Z,5.00
2018-05-12T16:23:32.503Z,4.63
2018-05-12T16:26:00.201Z,5.80
2018-05-12T16:28:28.830Z,5.47
2018-05-12T16:30:56.428Z,4.93
2018-05-12T16:33:25.108Z,5.73
2018-05-12T16:35:52.616Z,4.90
2018-05-12T16:38:20.129Z,4.80
2018-05-12T16:40:47.958Z,4.90
2018-05-12T16:43:15.472Z,5.30
2018-05-12T16:45:42.996Z,5.57
2018-05-12T16:48:10.940Z,5.47
2018-05-12T16:50:38.560Z,5.60
2018-05-12T16:53:06.396Z,5.47
2018-05-12T16:55:34.128Z,6.03
2018-05-12T16:58:01.763Z,5.70
2018-05-12T17:00:29.283Z,5.23
2018-05-12T17:02:57.069Z,5.20
2018-05-12T17:05:24.673Z,4.83
2018-05-12T17:07:52.208Z,4.73
2018-05-12T17:10:19.901Z,4.30
2018-05-12T17:12:47.583Z,4.17
2018-05-12T17:15:15.137Z,3.60
2018-05-12T17:17:43.090Z,4.47
2018-05-12T17:20:10.617Z,4.30
2018-05-12T17:22:38.125Z,4.50
2018-05-12T17:25:06.094Z,5.07
2018-05-12T17:27:34.064Z,4.53
2018-05-12T17:30:01.575Z,4.17
2018-05-12T17:32:29.152Z,4.80
2018-05-12T17:34:56.656Z,4.37
2018-05-12T17:37:24.179Z,4.80
2018-05-12T17:39:52.017Z,5.00
2018-05-12T17:42:19.536Z,4.70
2018-05-12T17:44:47.167Z,4.40
2018-05-12T17:47:15.076Z,5.03
2018-05-12T17:49:43.335Z,4.93
2018-05-12T17:52:11.498Z,4.03
2018-05-12T17:54:39.101Z,4.50
2018-05-12T17:57:06.787Z,5.20
2018-05-12T17:59:36.494Z,4.77
2018-05-12T18:02:05.296Z,4.90
2018-05-12T18:04:32.975Z,4.83
2018-05-12T18:07:01.144Z,4.33
2018-05-12T18:09:29.027Z,5.17
2018-05-12T18:11:57.778Z,4.90
2018-05-12T18:14:25.791Z,4.87
2018-05-12T18:16:53.396Z,4.63
2018-05-12T18:19:21.117Z,4.77
2018-05-12T18:21:48.633Z,4.93
2018-05-12T18:24:16.530Z,5.30
2018-05-12T18:26:44.112Z,8.10
2018-05-12T18:29:12.264Z,7.83
2018-05-12T18:31:39.881Z,6.23
2018-05-12T18:34:07.449Z,7.60
2018-05-12T18:36:34.976Z,5.77
2018-05-12T18:39:03.097Z,6.33
2018-05-12T18:41:30.880Z,6.10
2018-05-12T18:43:58.539Z,8.67
2018-05-12T18:46:26.411Z,8.10
2018-05-12T18:48:53.959Z,9.37
2018-05-12T18:51:21.822Z,10.30
2018-05-12T18:53:49.906Z,10.07
2018-05-12T18:56:17.542Z,9.00
2018-05-12T18:58:45.061Z,9.10
2018-05-12T19:01:13.088Z,8.30
2018-05-12T19:03:40.759Z,9.43
2018-05-12T19:06:08.322Z,10.10
2018-05-12T19:08:36.092Z,11.60
2018-05-12T19:11:03.666Z,10.90
2018-05-12T19:13:32.061Z,9.43
2018-05-12T19:15:59.864Z,8.83
2018-05-12T19:18:27.550Z,8.90
2018-05-12T19:20:55.327Z,9.60
2018-05-12T19:23:22.921Z,9.10
2018-05-12T19:25:50.642Z,9.43
2018-05-12T19:28:18.274Z,9.40
2018-05-12T19:30:46.029Z,8.80
2018-05-12T19:33:13.555Z,11.23
2018-05-12T19:35:41.094Z,13.27
2018-05-12T19:38:09.000Z,10.80
2018-05-12T19:40:36.708Z,11.23
2018-05-12T19:43:05.353Z,12.70
2018-05-12T19:45:34.537Z,11.73
2018-05-12T19:48:02.131Z,28.77
2018-05-12T19:50:29.701Z,22.40
2018-05-12T19:52:57.641Z,27.47
2018-05-12T19:55:25.156Z,20.30
2018-05-12T19:57:52.713Z,12.97
2018-05-12T20:00:20.652Z,11.53
2018-05-12T20:02:48.199Z,10.07
2018-05-12T20:05:15.989Z,9.93
2018-05-12T20:07:43.552Z,10.70
2018-05-12T20:10:11.184Z,10.70
2018-05-12T20:12:38.769Z,13.27
2018-05-12T20:15:06.726Z,12.10
2018-05-12T20:17:34.387Z,11.20
2018-05-12T20:20:02.040Z,9.57
2018-05-12T20:22:30.207Z,9.13
2018-05-12T20:24:57.760Z,12.53
2018-05-12T20:27:25.317Z,26.77
2018-05-12T20:29:53.009Z,11.93
2018-05-12T20:32:20.551Z,9.97
2018-05-12T20:34:48.174Z,13.70
2018-05-12T20:37:16.098Z,10.97
2018-05-12T20:39:43.602Z,10.07
2018-05-12T20:42:11.193Z,12.67
2018-05-12T20:44:38.884Z,21.80
2018-05-12T20:47:06.686Z,10.70
2018-05-12T20:49:34.323Z,20.23
2018-05-12T20:52:02.093Z,16.77
2018-05-12T20:54:29.613Z,20.20
2018-05-12T20:56:57.195Z,9.70
2018-05-12T20:59:25.007Z,10.87
2018-05-12T21:01:52.932Z,13.43
2018-05-12T21:04:20.507Z,14.93
2018-05-12T21:06:48.060Z,12.40
2018-05-12T21:09:17.364Z,9.47
2018-05-12T21:11:45.521Z,11.23
2018-05-12T21:14:13.411Z,7.00
2018-05-12T21:16:40.896Z,7.77
2018-05-12T21:19:08.677Z,7.93
2018-05-12T21:21:36.586Z,7.53
2018-05-12T21:24:04.451Z,7.43
2018-05-12T21:26:32.108Z,8.40
2018-05-12T21:29:00.687Z,8.20
2018-05-12T21:31:28.319Z,11.07
2018-05-12T21:33:55.860Z,6.47
2018-05-12T21:36:23.776Z,6.30
2018-05-12T21:38:51.361Z,5.83
2018-05-12T21:41:19.000Z,10.10
2018-05-12T21:43:47.258Z,9.00
2018-05-12T21:46:14.833Z,8.00
2018-05-12T21:48:42.417Z,7.67
2018-05-12T21:51:10.345Z,10.30
2018-05-12T21:53:37.920Z,9.87
2018-05-12T21:56:05.974Z,7.30
2018-05-12T21:58:33.859Z,7.77
2018-05-12T22:01:01.421Z,8.93
2018-05-12T22:03:29.692Z,9.37
2018-05-12T22:05:57.545Z,8.50
2018-05-12T22:08:25.060Z,7.80
2018-05-12T22:10:52.580Z,8.97
2018-05-12T22:13:21.361Z,7.90
2018-05-12T22:15:48.871Z,9.33
2018-05-12T22:18:17.679Z,8.53
2018-05-12T22:20:45.569Z,9.93
2018-05-12T22:23:13.152Z,9.47
2018-05-12T22:25:41.415Z,9.10
2018-05-12T22:28:08.984Z,10.13
2018-05-12T22:30:36.588Z,10.87
2018-05-12T22:33:04.090Z,10.37
2018-05-12T22:35:32.165Z,10.60
2018-05-12T22:37:59.710Z,10.30
2018-05-12T22:40:27.236Z,10.27
2018-05-12T22:42:54.808Z,10.50
2018-05-12T22:45:22.329Z,11.07
2018-05-12T22:47:49.854Z,11.03
2018-05-12T22:50:17.938Z,11.93
2018-05-12T22:52:45.460Z,12.80
2018-05-12T22:55:12.985Z,11.10
2018-05-12T22:57:40.688Z,13.00
2018-05-12T23:00:08.226Z,12.60
2018-05-12T23:02:35.753Z,14.77
2018-05-12T23:05:03.585Z,13.17
2018-05-12T23:07:31.101Z,13.50
2018-05-12T23:09:58.625Z,13.70
2018-05-12T23:12:26.200Z,12.37
2018-05-12T23:14:53.725Z,12.30
2018-05-12T23:17:21.246Z,12.67
2018-05-12T23:19:49.027Z,12.90
2018-05-12T23:22:16.557Z,12.47
2018-05-12T23:24:44.074Z,13.10
2018-05-12T23:27:12.550Z,13.47
2018-05-12T23:29:40.070Z,13.30
2018-05-12T23:32:07.590Z,13.33
2018-05-12T23:34:35.150Z,15.90
2018-05-12T23:37:02.674Z,14.03
2018-05-12T23:39:30.245Z,16.03
2018-05-12T23:41:57.814Z,15.40
2018-05-12T23:44:25.332Z,14.80
2018-05-12T23:46:52.849Z,14.20
2018-05-12T23:49:20.427Z,14.90
2018-05-12T23:51:47.948Z,14.80
2018-05-12T23:54:15.477Z,14.40
2018-05-12T23:56:43.246Z,16.27
2018-05-12T23:59:10.768Z,14.90
